createdAt,value
2022-11-02T00:00:46.836Z,99010.06
2022-11-02T00:03:29.550Z,99010.66
2022-11-02T00:05:56.564Z,99010.59
2022-11-02T00:08:23.329Z,99014.69
2022-11-02T00:10:50.312Z,99012.91
2022-11-02T00:13:17.078Z,99010.97
2022-11-02T00:15:44.067Z,99004.75
2022-11-02T00:18:12.500Z,99011.75
2022-11-02T00:20:41.982Z,99016.03
2022-11-02T00:23:11.043Z,99004.66
2022-11-02T00:25:44.126Z,99008.88
2022-11-02T00:28:11.237Z,99009.66
2022-11-02T00:30:38.539Z,99010.50
2022-11-02T00:33:05.627Z,99012.19
2022-11-02T00:35:34.244Z,99008.69
2022-11-02T00:38:01.112Z,99006.91
2022-11-02T00:40:28.525Z,99002.56
2022-11-02T00:42:55.351Z,99006.84
2022-11-02T00:45:23.018Z,99000.53
2022-11-02T00:47:50.359Z,99008.38
2022-11-02T00:50:17.616Z,99001.06
2022-11-02T00:52:44.379Z,98999.06
2022-11-02T00:55:12.066Z,98999.78
2022-11-02T00:57:40.343Z,98996.16
2022-11-02T01:00:10.145Z,99000.56
2022-11-02T01:02:38.259Z,99000.44
2022-11-02T01:05:06.589Z,99003.16
2022-11-02T01:07:33.831Z,99002.31
2022-11-02T01:10:00.860Z,99002.13
2022-11-02T01:12:27.700Z,99001.88
2022-11-02T01:14:54.623Z,98995.81
2022-11-02T01:17:21.541Z,98994.03
2022-11-02T01:19:50.395Z,98986.78
2022-11-02T01:22:17.161Z,98990.97
2022-11-02T01:24:44.073Z,98981.53
2022-11-02T01:27:10.864Z,98983.69
2022-11-02T01:29:37.844Z,98975.50
2022-11-02T01:32:04.863Z,98977.03
2022-11-02T01:34:32.045Z,98977.75
2022-11-02T01:36:59.094Z,98975.03
2022-11-02T01:39:26.041Z,98983.63
2022-11-02T01:41:54.073Z,98980.22
2022-11-02T01:44:31.314Z,98983.88
2022-11-02T01:47:08.995Z,98979.38
2022-11-02T01:49:39.303Z,98979.38
2022-11-02T01:52:20.097Z,98978.91
2022-11-02T01:54:59.267Z,98986.34
2022-11-02T01:57:28.732Z,98983.16
2022-11-02T02:00:05.597Z,98987.78
2022-11-02T02:02:35.282Z,98979.75
2022-11-02T02:05:07.782Z,98986.84
2022-11-02T02:07:37.317Z,98982.25
2022-11-02T02:10:05.903Z,98980.44
2022-11-02T02:12:34.690Z,98991.38
2022-11-02T02:15:01.948Z,98994.19
2022-11-02T02:17:50.188Z,98991.72
2022-11-02T02:20:46.713Z,98986.56
2022-11-02T02:23:19.246Z,98984.13
2022-11-02T02:26:07.515Z,98977.22
2022-11-02T02:28:41.432Z,98978.31
2022-11-02T02:31:16.540Z,98981.13
2022-11-02T02:34:20.914Z,98985.81
2022-11-02T02:36:57.967Z,98986.81
2022-11-02T02:39:27.433Z,98985.03
2022-11-02T02:42:06.608Z,98980.00
2022-11-02T02:44:38.340Z,98979.91
2022-11-02T02:47:17.825Z,98987.84
2022-11-02T02:49:50.388Z,98984.59
2022-11-02T02:52:19.838Z,98990.41
2022-11-02T02:54:47.429Z,98994.06
2022-11-02T02:57:18.622Z,98995.53
2022-11-02T02:59:48.673Z,98993.41
2022-11-02T03:02:24.712Z,98992.31
2022-11-02T03:04:51.541Z,98988.91
2022-11-02T03:07:23.756Z,98991.47
2022-11-02T03:10:11.988Z,98990.69
2022-11-02T03:12:54.253Z,98992.31
2022-11-02T03:15:48.536Z,99004.84
2022-11-02T03:18:25.192Z,99001.09
2022-11-02T03:21:10.560Z,98991.28
2022-11-02T03:23:59.955Z,99012.41
2022-11-02T03:26:39.454Z,99000.09
2022-11-02T03:29:12.753Z,99000.56
2022-11-02T03:31:51.961Z,99002.13
2022-11-02T03:34:39.135Z,99009.63
2022-11-02T03:37:30.358Z,99007.44
2022-11-02T03:40:26.079Z,99015.06
2022-11-02T03:42:54.182Z,99007.47
2022-11-02T03:45:29.546Z,99005.41
2022-11-02T03:48:02.269Z,99005.16
2022-11-02T03:50:29.771Z,99011.84
2022-11-02T03:53:03.829Z,99017.72
2022-11-02T03:55:38.099Z,99017.53
2022-11-02T03:58:05.154Z,99016.69
2022-11-02T04:00:36.202Z,99018.25
2022-11-02T04:03:07.079Z,99017.41
2022-11-02T04:05:35.917Z,99019.09
2022-11-02T04:08:23.098Z,99020.03
2022-11-02T04:11:10.216Z,99020.19
2022-11-02T04:13:56.143Z,99020.13
2022-11-02T04:16:27.579Z,99025.50
2022-11-02T04:19:13.582Z,99024.47
2022-11-02T04:21:41.045Z,99025.22
2022-11-02T04:24:27.344Z,99022.50
2022-11-02T04:26:54.339Z,99027.88
2022-11-02T04:29:21.064Z,99024.38
2022-11-02T04:31:48.026Z,99022.50
2022-11-02T04:34:14.742Z,99027.81
2022-11-02T04:36:41.786Z,99030.53
2022-11-02T04:39:08.572Z,99036.72
2022-11-02T04:41:44.712Z,99030.53
2022-11-02T04:44:14.434Z,99035.75
2022-11-02T04:46:43.274Z,99037.47
2022-11-02T04:49:11.391Z,99039.34
2022-11-02T04:51:41.109Z,99035.75
2022-11-02T04:54:10.123Z,99034.84
2022-11-02T04:56:37.086Z,99036.59
2022-11-02T04:59:03.952Z,99034.84
2022-11-02T05:01:31.120Z,99038.16
2022-11-02T05:03:58.093Z,99044.13
2022-11-02T05:06:25.501Z,99037.28
2022-11-02T05:08:52.541Z,99046.94
2022-11-02T05:11:19.686Z,99043.44
2022-11-02T05:13:46.692Z,99037.47
2022-11-02T05:16:15.993Z,99043.44
2022-11-02T05:18:43.561Z,99045.16
2022-11-02T05:21:12.394Z,99048.56
2022-11-02T05:23:39.693Z,99050.28
2022-11-02T05:26:11.902Z,99058.06
2022-11-02T05:28:38.803Z,99060.44
2022-11-02T05:31:06.150Z,99057.72
2022-11-02T05:33:33.072Z,99059.44
2022-11-02T05:36:00.427Z,99053.38
2022-11-02T05:38:28.358Z,99062.00
2022-11-02T05:40:57.825Z,99063.44
2022-11-02T05:43:25.098Z,99062.56
2022-11-02T05:45:57.338Z,99060.03
2022-11-02T05:48:25.830Z,99067.72
2022-11-02T05:51:00.519Z,99070.53
2022-11-02T05:53:31.768Z,99080.97
2022-11-02T05:56:03.063Z,99076.44
2022-11-02T05:58:29.920Z,99083.63
2022-11-02T06:01:01.705Z,99092.34
2022-11-02T06:03:29.492Z,99087.03
2022-11-02T06:06:01.131Z,99090.53
2022-11-02T06:08:28.171Z,99096.88
2022-11-02T06:10:55.194Z,99099.69
2022-11-02T06:13:21.958Z,99101.41
2022-11-02T06:15:48.934Z,99103.09
2022-11-02T06:18:15.666Z,99106.69
2022-11-02T06:20:42.853Z,99104.06
2022-11-02T06:23:09.715Z,99108.41
2022-11-02T06:25:36.640Z,99113.69
2022-11-02T06:28:03.396Z,99108.59
2022-11-02T06:30:30.361Z,99115.44
2022-11-02T06:32:58.690Z,99120.53
2022-11-02T06:35:28.432Z,99117.75
2022-11-02T06:37:55.199Z,99128.94
2022-11-02T06:40:25.654Z,99131.59
2022-11-02T06:43:15.565Z,99130.56
2022-11-02T06:45:43.295Z,99140.13
2022-11-02T06:48:10.128Z,99132.03
2022-11-02T06:50:37.117Z,99139.78
2022-11-02T06:53:04.441Z,99136.88
2022-11-02T06:55:31.674Z,99138.94
2022-11-02T06:57:58.420Z,99137.31
2022-11-02T07:00:25.542Z,99144.06
2022-11-02T07:03:06.986Z,99143.16
2022-11-02T07:05:34.558Z,99144.91
2022-11-02T07:08:01.384Z,99145.78
2022-11-02T07:10:28.815Z,99147.31
2022-11-02T07:12:57.231Z,99147.22
2022-11-02T07:15:25.956Z,99148.78
2022-11-02T07:17:53.498Z,99150.22
2022-11-02T07:20:20.988Z,99140.06
2022-11-02T07:22:59.875Z,99139.03
2022-11-02T07:25:31.109Z,99147.47
2022-11-02T07:28:00.003Z,99144.56
2022-11-02T07:30:29.198Z,99145.88
2022-11-02T07:32:56.004Z,99148.44
2022-11-02T07:35:22.997Z,99143.03
2022-11-02T07:37:57.847Z,99146.53
2022-11-02T07:40:24.903Z,99140.22
2022-11-02T07:42:54.010Z,99148.25
2022-11-02T07:45:21.495Z,99139.75
2022-11-02T07:47:49.231Z,99134.00
2022-11-02T07:50:19.702Z,99139.88
2022-11-02T07:52:54.614Z,99149.34
2022-11-02T07:55:24.063Z,99145.44
2022-11-02T07:57:58.965Z,99139.09
2022-11-02T08:00:28.081Z,99136.00
2022-11-02T08:02:56.109Z,99142.47
2022-11-02T08:05:23.547Z,99136.53
2022-11-02T08:07:58.322Z,99137.16
2022-11-02T08:10:25.859Z,99139.94
2022-11-02T08:12:52.927Z,99138.50
2022-11-02T08:15:19.896Z,99132.66
2022-11-02T08:17:47.071Z,99136.41
2022-11-02T08:20:14.339Z,99141.16
2022-11-02T08:22:41.482Z,99142.75
2022-11-02T08:25:08.741Z,99145.34
2022-11-02T08:27:35.864Z,99135.97
2022-11-02T08:30:02.608Z,99135.09
2022-11-02T08:32:29.779Z,99147.69
2022-11-02T08:34:56.520Z,99137.13
2022-11-02T08:37:23.561Z,99136.97
2022-11-02T08:39:50.413Z,99134.03
2022-11-02T08:42:17.615Z,99134.69
2022-11-02T08:44:44.349Z,99136.56
2022-11-02T08:47:11.410Z,99133.78
2022-11-02T08:49:38.160Z,99125.59
2022-11-02T08:52:05.363Z,99131.88
2022-11-02T08:54:32.185Z,99131.16
2022-11-02T08:56:59.304Z,99132.00
2022-11-02T08:59:26.064Z,99132.63
2022-11-02T09:01:53.213Z,99127.34
2022-11-02T09:04:20.148Z,99132.88
2022-11-02T09:06:47.240Z,99138.28
2022-11-02T09:09:13.948Z,99144.69
2022-11-02T09:11:40.993Z,99145.81
2022-11-02T09:14:08.019Z,99125.88
2022-11-02T09:16:40.214Z,99135.03
2022-11-02T09:19:08.038Z,99145.19
2022-11-02T09:21:35.126Z,99140.84
2022-11-02T09:24:01.881Z,99139.91
2022-11-02T09:26:29.002Z,99129.28
2022-11-02T09:28:55.719Z,99121.97
2022-11-02T09:31:22.736Z,99125.50
2022-11-02T09:33:49.481Z,99141.88
2022-11-02T09:36:16.558Z,99137.53
2022-11-02T09:38:43.358Z,99130.34
2022-11-02T09:41:26.814Z,99125.50
2022-11-02T09:44:11.250Z,99120.97
2022-11-02T09:46:42.365Z,99121.69
2022-11-02T09:49:16.453Z,99122.53
2022-11-02T09:51:51.238Z,99124.97
2022-11-02T09:54:30.811Z,99115.44
2022-11-02T09:57:13.136Z,99123.47
2022-11-02T09:59:41.351Z,99127.47
2022-11-02T10:02:41.599Z,99114.94
2022-11-02T10:05:11.188Z,99116.34
2022-11-02T10:08:15.837Z,99119.59
2022-11-02T10:11:10.280Z,99108.03
2022-11-02T10:13:37.297Z,99113.84
2022-11-02T10:16:12.783Z,99104.88
2022-11-02T10:18:41.925Z,99105.00
2022-11-02T10:21:21.991Z,99101.75
2022-11-02T10:23:55.006Z,99109.94
2022-11-02T10:26:32.018Z,99103.69
2022-11-02T10:29:03.445Z,99110.06
2022-11-02T10:31:34.538Z,99101.81
2022-11-02T10:34:13.738Z,99101.50
2022-11-02T10:36:47.397Z,99096.41
2022-11-02T10:39:42.517Z,99097.50
2022-11-02T10:42:55.515Z,99104.66
2022-11-02T10:45:44.066Z,99097.09
2022-11-02T10:48:36.736Z,99089.22
2022-11-02T10:51:15.460Z,99105.22
2022-11-02T10:53:45.138Z,99100.94
2022-11-02T10:56:12.427Z,99099.91
2022-11-02T10:58:45.314Z,99091.91
2022-11-02T11:01:13.312Z,99091.63
2022-11-02T11:03:52.749Z,99089.78
2022-11-02T11:06:20.620Z,99087.94
2022-11-02T11:08:50.030Z,99085.03
2022-11-02T11:11:26.477Z,99079.13
2022-11-02T11:16:56.187Z,99079.47
2022-11-02T11:19:39.311Z,99083.53
2022-11-02T11:22:25.671Z,99079.53
2022-11-02T11:24:52.957Z,99086.13
2022-11-02T11:27:21.987Z,99084.34
2022-11-02T11:29:54.779Z,99078.88
2022-11-02T11:32:30.253Z,99074.41
2022-11-02T11:35:07.960Z,99080.69
2022-11-02T11:37:34.796Z,99070.34
2022-11-02T11:40:16.562Z,99075.53
2022-11-02T11:42:43.732Z,99072.00
2022-11-02T11:45:26.382Z,99075.59
2022-11-02T11:47:57.204Z,99071.97
2022-11-02T11:50:26.077Z,99070.47
2022-11-02T11:53:19.586Z,99077.81
2022-11-02T11:55:55.203Z,99074.50
2022-11-02T11:58:28.951Z,99076.31
2022-11-02T12:01:07.525Z,99063.72
2022-11-02T12:03:57.034Z,99078.56
2022-11-02T12:06:35.002Z,99064.81
2022-11-02T12:09:17.717Z,99054.88
2022-11-02T12:11:56.477Z,99063.63
2022-11-02T12:14:41.912Z,99063.25
2022-11-02T12:17:18.121Z,99059.56
2022-11-02T12:19:50.719Z,99061.41
2022-11-02T12:23:06.742Z,99062.75
2022-11-02T12:25:48.811Z,99058.63
2022-11-02T12:28:57.786Z,99070.91
2022-11-02T12:31:37.417Z,99053.50
2022-11-02T12:34:22.344Z,99052.66
2022-11-02T12:37:35.734Z,99052.19
2022-11-02T12:40:16.994Z,99052.81
2022-11-02T12:42:53.671Z,99054.38
2022-11-02T12:45:37.480Z,99053.75
2022-11-02T12:48:05.832Z,99055.47
2022-11-02T12:51:09.961Z,99051.69
2022-11-02T12:53:47.098Z,99058.66
2022-11-02T12:56:25.333Z,99046.22
2022-11-02T12:58:52.596Z,99048.03
2022-11-02T13:01:26.030Z,99057.00
2022-11-02T13:04:14.313Z,99055.25
2022-11-02T13:06:50.104Z,99057.59
2022-11-02T13:09:25.797Z,99050.47
2022-11-02T13:12:09.478Z,99046.16
2022-11-02T13:14:49.116Z,99044.81
2022-11-02T13:17:18.804Z,99048.94
2022-11-02T13:19:56.044Z,99051.94
2022-11-02T13:22:32.862Z,99056.56
2022-11-02T13:25:22.185Z,99060.72
2022-11-02T13:28:01.254Z,99054.19
2022-11-02T13:30:32.777Z,99061.19
2022-11-02T13:32:59.765Z,99060.78
2022-11-02T13:35:40.994Z,99059.53
2022-11-02T13:38:46.669Z,99060.19
2022-11-02T13:41:20.219Z,99061.22
2022-11-02T13:44:24.870Z,99065.81
2022-11-02T13:47:03.473Z,99060.66
2022-11-02T13:49:37.369Z,99063.63
2022-11-02T13:52:44.069Z,99078.41
2022-11-02T13:55:19.492Z,99083.28
2022-11-02T13:57:52.611Z,99072.56
2022-11-02T14:00:22.817Z,99075.88
2022-11-02T14:02:54.517Z,99077.44
2022-11-02T14:05:30.525Z,99075.75
2022-11-02T14:08:35.658Z,99072.00
2022-11-02T14:11:10.832Z,99079.56
2022-11-02T14:13:55.858Z,99077.25
2022-11-02T14:16:51.194Z,99080.84
2022-11-02T14:19:19.349Z,99083.22
2022-11-02T14:21:52.813Z,99081.50
2022-11-02T14:24:34.488Z,99083.78
2022-11-02T14:27:13.851Z,99091.38
2022-11-02T14:29:46.645Z,99090.09
2022-11-02T14:32:34.751Z,99095.94
2022-11-02T14:35:13.682Z,99087.75
2022-11-02T14:37:59.516Z,99083.13
2022-11-02T14:40:26.573Z,99087.53
2022-11-02T14:42:59.686Z,99089.09
2022-11-02T14:45:39.296Z,99081.78
2022-11-02T14:48:11.259Z,99085.94
2022-11-02T14:50:38.107Z,99085.66
2022-11-02T14:53:08.947Z,99085.31
2022-11-02T14:55:40.383Z,99090.50
2022-11-02T14:58:16.726Z,99094.66
2022-11-02T15:00:49.836Z,99093.16
2022-11-02T15:03:26.293Z,99095.69
2022-11-02T15:06:20.133Z,99103.47
2022-11-02T15:09:01.948Z,99097.38
2022-11-02T15:11:48.704Z,99104.56
2022-11-02T15:14:37.987Z,99107.34
2022-11-02T15:17:10.732Z,99102.56
2022-11-02T15:19:40.623Z,99109.75
2022-11-02T15:22:29.028Z,99107.47
2022-11-02T15:25:00.374Z,99112.34
2022-11-02T15:27:28.854Z,99121.31
2022-11-02T15:29:56.730Z,99120.69
2022-11-02T15:32:26.965Z,99124.91
2022-11-02T15:34:55.727Z,99127.59
2022-11-02T15:37:28.929Z,99128.31
2022-11-02T15:40:00.820Z,99126.41
2022-11-02T15:42:58.196Z,99131.63
2022-11-02T15:45:56.950Z,99123.59
2022-11-02T15:48:39.342Z,99132.75
2022-11-02T15:51:09.341Z,99138.59
2022-11-02T15:53:57.395Z,99139.09
2022-11-02T15:56:24.448Z,99137.97
2022-11-02T15:59:12.596Z,99139.97
2022-11-02T16:01:40.327Z,99138.63
2022-11-02T16:04:10.819Z,99144.19
2022-11-02T16:06:37.800Z,99137.63
2022-11-02T16:09:34.301Z,99143.41
2022-11-02T16:12:23.917Z,99146.34
2022-11-02T16:14:57.704Z,99144.13
2022-11-02T16:17:27.849Z,99141.81
2022-11-02T16:20:11.523Z,99141.47
2022-11-02T16:22:39.388Z,99146.38
2022-11-02T16:25:19.672Z,99142.56
2022-11-02T16:27:47.152Z,99147.44
2022-11-02T16:30:22.214Z,99146.91
2022-11-02T16:32:58.733Z,99146.44
2022-11-02T16:35:26.513Z,99150.44
2022-11-02T16:37:53.629Z,99150.91
2022-11-02T16:40:21.259Z,99149.50
2022-11-02T16:42:53.451Z,99151.63
2022-11-02T16:45:40.257Z,99147.63
2022-11-02T16:48:18.149Z,99161.09
2022-11-02T16:51:15.034Z,99168.50
2022-11-02T16:53:42.380Z,99159.91
2022-11-02T16:56:14.458Z,99168.13
2022-11-02T16:58:49.728Z,99163.16
2022-11-02T17:01:23.279Z,99168.53
2022-11-02T17:03:50.683Z,99167.72
2022-11-02T17:06:18.955Z,99169.72
2022-11-02T17:08:53.089Z,99174.44
2022-11-02T17:11:20.400Z,99181.53
2022-11-02T17:13:56.868Z,99175.69
2022-11-02T17:16:23.922Z,99179.28
2022-11-02T17:18:50.716Z,99179.59
2022-11-02T17:21:25.065Z,99178.97
2022-11-02T17:23:52.214Z,99183.53
2022-11-02T17:26:22.134Z,99184.56
2022-11-02T17:28:54.637Z,99187.34
2022-11-02T17:31:28.455Z,99193.59
2022-11-02T17:33:59.320Z,99191.91
2022-11-02T17:36:27.143Z,99186.81
2022-11-02T17:38:55.581Z,99188.59
2022-11-02T17:41:43.860Z,99187.78
2022-11-02T17:44:17.201Z,99193.03
2022-11-02T17:46:46.051Z,99185.22
2022-11-02T17:49:13.221Z,99196.69
2022-11-02T17:51:40.817Z,99193.25
2022-11-02T17:54:12.145Z,99189.75
2022-11-02T17:56:39.530Z,99193.56
2022-11-02T17:59:06.287Z,99187.50
2022-11-02T18:01:33.519Z,99188.53
2022-11-02T18:04:00.432Z,99179.91
2022-11-02T18:06:29.762Z,99187.13
2022-11-02T18:09:11.797Z,99190.88
2022-11-02T18:11:38.835Z,99189.22
2022-11-02T18:14:05.624Z,99193.59
2022-11-02T18:16:32.937Z,99193.72
2022-11-02T18:18:59.677Z,99194.84
2022-11-02T18:21:26.702Z,99195.00
2022-11-02T18:23:53.473Z,99192.38
2022-11-02T18:26:20.568Z,99199.50
2022-11-02T18:28:47.309Z,99196.97
2022-11-02T18:31:14.385Z,99201.53
2022-11-02T18:33:42.839Z,99196.25
2022-11-02T18:36:10.887Z,99200.66
2022-11-02T18:38:38.038Z,99203.53
2022-11-02T18:41:27.783Z,99198.41
2022-11-02T18:44:02.202Z,99203.66
2022-11-02T18:46:31.863Z,99205.44
2022-11-02T18:48:58.692Z,99198.56
2022-11-02T18:51:26.249Z,99196.03
2022-11-02T18:54:01.392Z,99202.16
2022-11-02T18:56:29.413Z,99206.53
2022-11-02T18:58:57.138Z,99193.41
2022-11-02T19:01:25.365Z,99203.06
2022-11-02T19:03:57.473Z,99201.28
2022-11-02T19:06:43.994Z,99203.00
2022-11-02T19:09:18.575Z,99208.41
2022-11-02T19:11:51.687Z,99206.72
2022-11-02T19:14:19.925Z,99210.34
2022-11-02T19:16:47.338Z,99200.94
2022-11-02T19:19:14.114Z,99214.06
2022-11-02T19:21:41.216Z,99206.16
2022-11-02T19:24:08.392Z,99214.03
2022-11-02T19:26:36.510Z,99219.03
2022-11-02T19:29:06.343Z,99223.25
2022-11-02T19:31:35.353Z,99214.50
2022-11-02T19:34:02.339Z,99212.91
2022-11-02T19:36:29.430Z,99209.69
2022-11-02T19:38:56.300Z,99222.00
2022-11-02T19:41:23.953Z,99219.44
2022-11-02T19:43:50.966Z,99225.84
2022-11-02T19:46:20.893Z,99231.28
2022-11-02T19:48:47.733Z,99232.28
2022-11-02T19:51:20.237Z,99240.22
2022-11-02T19:53:52.376Z,99228.09
2022-11-02T19:56:20.827Z,99233.41
2022-11-02T19:58:49.816Z,99242.16
2022-11-02T20:01:27.317Z,99226.44
2022-11-02T20:03:54.856Z,99235.97
2022-11-02T20:06:26.328Z,99237.72
2022-11-02T20:08:55.808Z,99244.59
2022-11-02T20:11:24.059Z,99241.91
2022-11-02T20:13:52.209Z,99240.94
2022-11-02T20:16:19.882Z,99247.78
2022-11-02T20:18:48.801Z,99249.34
2022-11-02T20:21:20.234Z,99247.28
2022-11-02T20:23:47.788Z,99255.59
2022-11-02T20:26:20.995Z,99257.81
2022-11-02T20:28:48.619Z,99253.00
2022-11-02T20:31:21.501Z,99255.28
2022-11-02T20:33:48.863Z,99255.94
2022-11-02T20:36:16.358Z,99259.22
2022-11-02T20:38:43.556Z,99266.03
2022-11-02T20:41:17.130Z,99263.22
2022-11-02T20:43:46.121Z,99267.41
2022-11-02T20:49:13.703Z,99273.34
2022-11-02T20:51:49.274Z,99270.59
2022-11-02T20:54:18.363Z,99278.28
2022-11-02T20:56:45.493Z,99280.84
2022-11-02T20:59:12.242Z,99279.47
2022-11-02T21:01:39.370Z,99279.09
2022-11-02T21:04:06.345Z,99283.94
2022-11-02T21:06:33.399Z,99279.91
2022-11-02T21:09:00.694Z,99280.31
2022-11-02T21:11:46.424Z,99281.72
2022-11-02T21:14:13.174Z,99287.56
2022-11-02T21:16:40.223Z,99282.00
2022-11-02T21:19:07.635Z,99278.03
2022-11-02T21:21:34.677Z,99287.44
2022-11-02T21:24:01.517Z,99289.00
2022-11-02T21:26:28.507Z,99293.41
2022-11-02T21:28:55.250Z,99286.41
2022-11-02T21:31:22.420Z,99285.56
2022-11-02T21:33:49.998Z,99284.88
2022-11-02T21:36:17.925Z,99277.81
2022-11-02T21:38:45.540Z,99278.00
2022-11-02T21:41:19.784Z,99290.53
2022-11-02T21:43:46.630Z,99289.09
2022-11-02T21:46:13.697Z,99283.19
2022-11-02T21:48:40.496Z,99288.69
2022-11-02T21:51:13.014Z,99289.66
2022-11-02T21:53:42.753Z,99288.81
2022-11-02T21:56:11.218Z,99282.69
2022-11-02T21:58:43.048Z,99291.56
2022-11-02T22:01:34.722Z,99295.03
2022-11-02T22:04:02.308Z,99290.81
2022-11-02T22:06:31.566Z,99295.13
2022-11-02T22:09:02.160Z,99305.84
2022-11-02T22:11:29.723Z,99297.09
2022-11-02T22:13:58.487Z,99294.41
2022-11-02T22:16:28.278Z,99305.09
2022-11-02T22:19:00.492Z,99309.59
2022-11-02T22:21:30.523Z,99315.88
2022-11-02T22:23:57.806Z,99315.00
2022-11-02T22:26:27.271Z,99310.53
2022-11-02T22:28:57.202Z,99305.16
2022-11-02T22:31:27.179Z,99311.06
2022-11-02T22:33:56.650Z,99307.44
2022-11-02T22:36:26.078Z,99306.66
2022-11-02T22:38:54.456Z,99308.47
2022-11-02T22:41:41.142Z,99312.00
2022-11-02T22:44:19.153Z,99311.00
2022-11-02T22:46:49.655Z,99310.00
2022-11-02T22:49:18.576Z,99309.06
2022-11-02T22:51:48.252Z,99310.09
2022-11-02T22:54:16.184Z,99310.41
2022-11-02T22:56:44.691Z,99308.81
2022-11-02T22:59:11.503Z,99317.84
2022-11-02T23:01:39.554Z,99319.97
2022-11-02T23:04:07.008Z,99320.91
2022-11-02T23:06:34.721Z,99332.38
2022-11-02T23:09:02.286Z,99323.47
2022-11-02T23:11:36.364Z,99320.91
2022-11-02T23:14:06.051Z,99322.38
2022-11-02T23:16:34.437Z,99313.59
2022-11-02T23:19:29.212Z,99310.91
2022-11-02T23:22:21.499Z,99313.38
2022-11-02T23:25:11.283Z,99317.03
2022-11-02T23:28:14.898Z,99310.78
2022-11-02T23:31:01.104Z,99304.66
2022-11-02T23:33:31.235Z,99322.38
2022-11-02T23:36:15.434Z,99323.28
2022-11-02T23:39:03.179Z,99332.13
2022-11-02T23:41:32.239Z,99333.63
2022-11-02T23:44:14.779Z,99330.66
2022-11-02T23:46:46.172Z,99335.34
2022-11-02T23:49:15.519Z,99330.56
2022-11-02T23:52:00.882Z,99335.50
2022-11-02T23:54:46.829Z,99335.31
2022-11-02T23:57:13.682Z,99340.47
2022-11-02T23:59:40.798Z,99341.09
